Time;durP1;ratioP1;P1;durP2;ratioP2;P2;SDS_P1;SDS_P2;PMS_P1;PMS_P2;Temp;Humidity;BMP_temperature;BMP_pressure;BME280_temperature;BME280_humidity;BME280_pressure;Samples;Min_cycle;Max_cycle;Signal;HPM_P1;HPM_P2
2021/12/15 00:01:00;;;;;;;24.67;20.10;;;;;;;5.98;100.00;101705.41;5001945;28;20237;-57
2021/12/15 00:03:26;;;;;;;25.37;20.53;;;;;;;5.93;100.00;101697.56;5000765;28;20197;-58
2021/12/15 00:05:53;;;;;;;24.97;20.67;;;;;;;5.90;100.00;101706.88;5011045;28;20194;-58
2021/12/15 00:08:18;;;;;;;25.43;20.10;;;;;;;5.88;100.00;101708.53;4994572;28;20219;-58
2021/12/15 00:10:48;;;;;;;22.90;18.70;;;;;;;5.87;100.00;101704.22;5002706;28;20637;-57
2021/12/15 00:13:15;;;;;;;22.60;18.97;;;;;;;5.90;100.00;101712.03;5008126;28;20188;-59
2021/12/15 00:15:41;;;;;;;21.93;18.83;;;;;;;5.91;100.00;101709.50;5003134;28;20780;-56
2021/12/15 00:18:07;;;;;;;27.33;19.37;;;;;;;5.91;100.00;101708.63;4996922;28;20236;-57
2021/12/15 00:20:33;;;;;;;26.10;20.80;;;;;;;5.87;100.00;101710.22;4996794;28;20218;-58
2021/12/15 00:22:59;;;;;;;28.27;20.60;;;;;;;5.82;100.00;101703.19;5003223;28;20249;-58
2021/12/15 00:25:29;;;;;;;23.67;19.63;;;;;;;5.79;100.00;101709.09;4997258;28;20198;-57
2021/12/15 00:27:55;;;;;;;28.53;21.60;;;;;;;5.76;100.00;101707.28;5010585;28;20216;-58
2021/12/15 00:30:21;;;;;;;25.17;20.53;;;;;;;5.77;100.00;101703.91;5102734;27;20215;-58
2021/12/15 00:32:48;;;;;;;25.93;20.63;;;;;;;5.78;100.00;101705.66;4995598;28;20211;-59
2021/12/15 00:35:13;;;;;;;25.10;20.00;;;;;;;5.80;100.00;101704.03;5001466;28;20209;-57
2021/12/15 00:37:39;;;;;;;26.63;20.23;;;;;;;5.83;100.00;101707.47;4997944;28;20209;-60
2021/12/15 00:40:08;;;;;;;26.67;20.87;;;;;;;5.84;100.00;101709.22;5004025;28;20651;-57
2021/12/15 00:42:33;;;;;;;26.50;20.20;;;;;;;5.82;100.00;101701.50;5001012;28;20196;-56
2021/12/15 00:44:58;;;;;;;27.07;20.53;;;;;;;5.83;100.00;101710.06;5004217;28;20539;-59
2021/12/15 00:47:24;;;;;;;26.00;19.87;;;;;;;5.84;100.00;101706.66;5001582;28;20219;-57
2021/12/15 00:49:51;;;;;;;25.50;19.10;;;;;;;5.85;100.00;101701.59;5001754;28;20216;-59
2021/12/15 00:52:17;;;;;;;25.20;19.83;;;;;;;5.87;100.00;101699.97;5002991;28;20198;-58
2021/12/15 00:54:42;;;;;;;24.20;19.93;;;;;;;5.89;100.00;101694.84;4992891;28;20204;-57
2021/12/15 00:57:07;;;;;;;24.27;19.03;;;;;;;5.90;100.00;101691.47;5007432;28;20696;-56
2021/12/15 00:59:33;;;;;;;25.87;19.70;;;;;;;5.92;100.00;101689.81;5004054;28;20225;-57
2021/12/15 01:01:59;;;;;;;28.60;20.73;;;;;;;5.93;100.00;101689.88;4996042;28;20202;-58
2021/12/15 01:04:25;;;;;;;24.70;19.20;;;;;;;5.97;100.00;101692.53;5001002;28;20205;-59
2021/12/15 01:06:56;;;;;;;25.60;19.70;;;;;;;5.95;100.00;101698.50;5005279;28;20217;-57
2021/12/15 01:09:35;;;;;;;24.37;19.77;;;;;;;5.97;100.00;101703.72;5025856;28;20188;-59
2021/12/15 01:20:04;;;;;;;25.17;19.43;;;;;;;5.97;100.00;101705.38;5005781;28;20224;-57
2021/12/15 01:22:30;;;;;;;22.63;19.07;;;;;;;5.96;100.00;101707.09;4999420;28;20206;-59
2021/12/15 01:25:00;;;;;;;24.73;19.40;;;;;;;5.97;100.00;101714.00;5004201;28;20222;-61
2021/12/15 01:27:27;;;;;;;25.83;19.93;;;;;;;5.95;100.00;101710.50;5038109;28;20259;-59
2021/12/15 01:29:53;;;;;;;25.53;19.17;;;;;;;5.95;100.00;101706.22;5015535;28;20270;-58
2021/12/15 01:32:19;;;;;;;23.10;18.70;;;;;;;5.95;100.00;101703.63;5006565;28;20681;-56
2021/12/15 01:34:45;;;;;;;24.07;18.10;;;;;;;5.95;100.00;101708.78;5004173;28;20249;-59
2021/12/15 01:37:12;;;;;;;27.37;18.73;;;;;;;5.95;100.00;101716.47;5007132;28;20217;-59
2021/12/15 01:39:38;;;;;;;25.37;19.60;;;;;;;5.94;100.00;101712.16;5008697;28;20578;-58
2021/12/15 01:42:05;;;;;;;25.43;19.70;;;;;;;5.95;100.00;101706.22;5010109;28;20899;-57
2021/12/15 01:47:17;;;;;;;25.50;18.77;;;;;;;5.93;100.00;101707.84;4998430;28;20355;-58
2021/12/15 01:49:47;;;;;;;24.40;19.27;;;;;;;5.93;100.00;101707.00;5010669;28;20176;-59
2021/12/15 01:52:26;;;;;;;24.30;18.93;;;;;;;5.93;100.00;101713.00;5016821;28;20546;-57
2021/12/15 01:54:55;;;;;;;24.80;18.63;;;;;;;5.95;100.00;101719.06;4997486;28;20188;-60
2021/12/15 01:57:24;;;;;;;24.57;18.37;;;;;;;5.94;100.00;101712.16;4995860;28;20228;-57
2021/12/15 01:59:52;;;;;;;23.43;19.13;;;;;;;5.95;100.00;101721.63;4999169;28;20619;-59
2021/12/15 02:02:18;;;;;;;26.13;20.13;;;;;;;5.97;100.00;101723.38;4993321;28;20617;-57
2021/12/15 02:04:44;;;;;;;24.63;18.00;;;;;;;5.97;100.00;101719.13;5012717;28;20358;-59
2021/12/15 02:07:15;;;;;;;24.60;18.90;;;;;;;5.97;100.00;101715.66;5000432;28;20625;-58
2021/12/15 02:12:23;;;;;;;22.40;18.80;;;;;;;5.97;100.00;101725.94;5000387;28;20204;-58
2021/12/15 02:14:50;;;;;;;25.83;19.30;;;;;;;5.95;100.00;101716.47;5000307;28;20194;-57
2021/12/15 02:17:15;;;;;;;26.37;19.53;;;;;;;5.94;100.00;101725.00;5001212;28;20673;-57
2021/12/15 02:19:41;;;;;;;24.90;18.50;;;;;;;5.94;100.00;101713.88;5009780;28;20466;-59
2021/12/15 02:22:07;;;;;;;23.77;18.53;;;;;;;5.94;100.00;101712.16;4994046;28;20192;-57
2021/12/15 02:24:34;;;;;;;24.70;19.93;;;;;;;5.96;100.00;101717.38;5000098;28;20719;-59
2021/12/15 02:27:01;;;;;;;24.97;19.27;;;;;;;5.95;100.00;101715.63;5003500;28;20251;-58
2021/12/15 02:29:30;;;;;;;25.53;19.67;;;;;;;5.93;100.00;101709.56;4990850;28;20582;-58
2021/12/15 02:32:07;;;;;;;;;;;;;;;;;;;;;
2021/12/15 02:39:31;;;;;;;25.43;19.57;;;;;;;5.89;100.00;101724.00;5000358;28;20739;-58
2021/12/15 02:41:56;;;;;;;22.53;18.37;;;;;;;5.89;100.00;101717.97;5007702;28;20195;-57
2021/12/15 02:44:23;;;;;;;24.57;18.40;;;;;;;5.89;100.00;101710.28;4995602;28;21026;-60
2021/12/15 02:46:50;;;;;;;23.67;18.43;;;;;;;5.89;100.00;101716.31;5015152;28;20218;-58
2021/12/15 02:49:20;;;;;;;23.13;18.73;;;;;;;5.90;100.00;101702.59;4997405;28;20200;-58
2021/12/15 02:51:49;;;;;;;24.70;18.83;;;;;;;5.89;100.00;101711.16;5015833;28;20670;-58
2021/12/15 02:54:16;;;;;;;26.47;20.20;;;;;;;5.87;100.00;101712.81;4994079;28;20222;-59
2021/12/15 02:56:44;;;;;;;30.23;20.80;;;;;;;5.87;100.00;101711.91;4997306;28;20263;-59
2021/12/15 02:59:12;;;;;;;27.37;20.53;;;;;;;5.86;100.00;101712.72;4999818;28;20282;-59
2021/12/15 03:02:13;;;;;;;34.13;21.47;;;;;;;5.84;100.00;101704.09;5003004;28;20658;-58
2021/12/15 03:04:51;;;;;;;29.10;20.10;;;;;;;5.83;100.00;101705.81;5002707;28;20268;-58
2021/12/15 03:07:36;;;;;;;32.57;21.57;;;;;;;5.84;100.00;101712.69;5004519;28;20205;-58
2021/12/15 03:15:35;;;;;;;32.63;21.13;;;;;;;5.82;100.00;101716.91;4998368;28;20634;-59
2021/12/15 03:18:12;;;;;;;31.57;21.23;;;;;;;5.83;100.00;101713.50;5000545;28;20204;-59
2021/12/15 03:20:51;;;;;;;31.47;20.93;;;;;;;5.83;100.00;101717.75;4996319;28;20207;-58
2021/12/15 03:23:39;;;;;;;31.20;20.23;;;;;;;5.84;100.00;101716.94;5012845;28;20246;-59
2021/12/15 03:26:07;;;;;;;29.23;19.53;;;;;;;5.83;100.00;101708.38;4998681;28;20216;-58
2021/12/15 03:37:04;;;;;;;35.87;21.50;;;;;;;5.83;100.00;101708.38;5003938;28;20215;-56
2021/12/15 03:39:32;;;;;;;33.57;20.47;;;;;;;5.83;100.00;101715.19;5004624;28;20600;-56
2021/12/15 03:42:03;;;;;;;32.97;20.47;;;;;;;5.83;100.00;101717.75;5005598;28;20666;-59
2021/12/15 03:44:32;;;;;;;33.33;21.13;;;;;;;5.84;100.00;101719.50;5007613;28;20196;-59
2021/12/15 03:46:59;;;;;;;34.30;21.57;;;;;;;5.82;100.00;101711.75;5000831;28;20217;-58
2021/12/15 03:49:25;;;;;;;38.20;22.10;;;;;;;5.82;100.00;101713.47;5002890;28;20294;-58
2021/12/15 03:51:50;;;;;;;38.73;22.20;;;;;;;5.80;100.00;101714.28;5000591;28;20222;-58
2021/12/15 03:54:17;;;;;;;39.47;22.20;;;;;;;5.79;100.00;101712.53;5003898;28;20243;-59
2021/12/15 03:56:44;;;;;;;38.43;23.40;;;;;;;5.82;100.00;101713.47;5013559;28;20343;-57
2021/12/15 03:59:10;;;;;;;36.60;23.20;;;;;;;5.79;100.00;101712.53;5004754;28;20695;-60
2021/12/15 04:01:36;;;;;;;38.30;22.60;;;;;;;5.78;100.00;101708.22;4993105;28;20742;-57
2021/12/15 04:04:02;;;;;;;39.70;22.13;;;;;;;5.78;100.00;101725.31;4996995;28;20225;-57
2021/12/15 04:06:38;;;;;;;37.17;23.63;;;;;;;5.79;100.00;101727.97;4999594;28;20546;-59
2021/12/15 04:09:09;;;;;;;37.10;22.97;;;;;;;5.78;100.00;101728.78;4996496;28;20912;-59
2021/12/15 04:11:36;;;;;;;37.47;21.97;;;;;;;5.78;100.00;101728.78;4997713;28;20190;-57
2021/12/15 04:14:09;;;;;;;38.63;22.23;;;;;;;5.80;100.00;101724.56;5001540;28;20200;-57
2021/12/15 04:19:09;;;;;;;38.73;22.87;;;;;;;5.82;100.00;101727.19;5003902;28;20190;-58
2021/12/15 04:21:37;;;;;;;39.60;22.53;;;;;;;5.81;100.00;101728.00;5007167;28;20302;-57
2021/12/15 04:24:02;;;;;;;36.53;21.03;;;;;;;5.82;100.00;101728.88;4993932;28;20200;-59
2021/12/15 04:26:28;;;;;;;34.87;21.17;;;;;;;5.83;100.00;101735.75;5009657;28;20515;-59
2021/12/15 04:28:54;;;;;;;35.70;21.00;;;;;;;5.83;100.00;101735.75;4996706;28;20193;-58
2021/12/15 04:31:24;;;;;;;37.13;22.17;;;;;;;5.81;100.00;101738.28;5004427;28;20678;-59
2021/12/15 04:33:55;;;;;;;36.43;22.20;;;;;;;5.81;100.00;101735.72;5096946;27;20194;-57
2021/12/15 04:36:24;;;;;;;37.10;20.97;;;;;;;5.81;100.00;101738.28;4997296;28;20272;-59
2021/12/15 04:38:51;;;;;;;32.40;20.10;;;;;;;5.81;100.00;101738.28;4997282;28;20267;-59
2021/12/15 04:41:19;;;;;;;36.07;21.63;;;;;;;5.83;100.00;101743.44;5003603;28;20206;-58
2021/12/15 04:43:55;;;;;;;36.83;21.60;;;;;;;5.84;100.00;101748.66;4997564;28;20213;-59
2021/12/15 04:46:21;;;;;;;34.23;20.43;;;;;;;5.85;100.00;101744.38;5000194;28;20185;-59
2021/12/15 04:48:46;;;;;;;35.40;21.93;;;;;;;5.85;100.00;101749.53;5012209;27;20189;-57
2021/12/15 04:51:12;;;;;;;36.03;20.67;;;;;;;5.86;100.00;101735.84;5000688;28;20260;-59
2021/12/15 04:53:41;;;;;;;38.77;21.23;;;;;;;5.86;100.00;101734.19;5002082;28;20197;-57
2021/12/15 04:56:07;;;;;;;35.73;21.53;;;;;;;5.87;100.00;101737.59;5000114;28;20182;-58
2021/12/15 04:58:34;;;;;;;39.60;23.30;;;;;;;5.87;100.00;101737.59;5004560;28;20188;-58
2021/12/15 05:01:03;;;;;;;41.30;22.10;;;;;;;5.87;100.00;101737.59;5000384;28;20626;-56
2021/12/15 05:03:29;;;;;;;36.97;22.03;;;;;;;5.87;100.00;101732.47;4994859;28;20201;-56
2021/12/15 05:05:54;;;;;;;35.07;21.50;;;;;;;5.87;100.00;101741.06;4994282;28;20182;-59
2021/12/15 05:08:20;;;;;;;40.67;23.10;;;;;;;5.87;100.00;101741.06;4997603;28;20215;-58
2021/12/15 05:10:46;;;;;;;38.87;21.37;;;;;;;5.89;100.00;101749.72;4993346;28;20737;-58
2021/12/15 05:13:12;;;;;;;38.23;21.77;;;;;;;5.89;100.00;101748.81;4990797;28;20199;-58
2021/12/15 05:15:37;;;;;;;35.30;21.10;;;;;;;5.89;100.00;101748.81;5001041;28;20184;-57
2021/12/15 05:18:05;;;;;;;34.73;20.97;;;;;;;5.90;100.00;101751.41;5007217;28;20223;-58
2021/12/15 05:20:33;;;;;;;36.57;20.77;;;;;;;5.90;100.00;101750.56;4993685;28;20291;-58
2021/12/15 05:22:59;;;;;;;38.00;21.50;;;;;;;5.91;100.00;101760.03;5006932;28;20602;-58
2021/12/15 05:25:24;;;;;;;39.27;21.70;;;;;;;5.90;100.00;101758.28;5015375;28;20188;-57
2021/12/15 05:27:49;;;;;;;38.60;21.13;;;;;;;5.90;100.00;101761.69;5016014;28;20354;-58
2021/12/15 05:30:17;;;;;;;40.50;21.17;;;;;;;5.90;100.00;101759.13;5016938;28;20181;-58
2021/12/15 05:32:43;;;;;;;40.47;23.33;;;;;;;5.90;100.00;101769.41;4997901;28;20675;-59
2021/12/15 05:35:14;;;;;;;40.10;22.30;;;;;;;5.91;100.00;101763.44;5000699;28;20193;-55
2021/12/15 05:37:40;;;;;;;41.83;23.00;;;;;;;5.90;100.00;101768.53;5014748;28;20298;-57
2021/12/15 05:40:07;;;;;;;46.83;24.80;;;;;;;5.89;100.00;101766.81;5014706;28;20290;-57
2021/12/15 05:42:32;;;;;;;48.93;25.27;;;;;;;5.89;100.00;101764.22;5024456;28;20199;-60
2021/12/15 05:44:58;;;;;;;45.63;23.80;;;;;;;5.88;100.00;101760.81;5019107;28;20188;-58
2021/12/15 05:47:25;;;;;;;45.53;24.73;;;;;;;5.88;100.00;101765.94;5004965;28;20213;-58
2021/12/15 05:49:52;;;;;;;44.53;23.97;;;;;;;5.89;100.00;101766.81;5029334;28;20182;-57
2021/12/15 05:52:18;;;;;;;43.63;23.47;;;;;;;5.88;100.00;101775.31;5008743;28;20224;-59
2021/12/15 05:54:44;;;;;;;42.27;24.43;;;;;;;5.89;100.00;101779.66;5023937;28;20192;-59
2021/12/15 05:57:09;;;;;;;42.43;24.93;;;;;;;5.87;100.00;101774.47;5017075;28;20221;-57
2021/12/15 05:59:35;;;;;;;42.27;23.73;;;;;;;5.87;100.00;101771.00;5019740;28;20195;-59
2021/12/15 06:02:01;;;;;;;42.47;24.77;;;;;;;5.88;100.00;101770.19;5006937;28;20193;-58
2021/12/15 06:04:26;;;;;;;41.90;22.97;;;;;;;5.88;100.00;101778.78;4988515;28;20568;-59
2021/12/15 06:06:52;;;;;;;43.60;24.60;;;;;;;5.89;100.00;101783.09;4993841;28;20239;-57
2021/12/15 06:09:17;;;;;;;40.23;22.90;;;;;;;5.86;100.00;101779.53;5005599;28;20211;-57
2021/12/15 06:11:48;;;;;;;41.03;23.83;;;;;;;5.85;100.00;101785.50;5003959;28;20201;-57
2021/12/15 06:14:22;;;;;;;39.30;23.80;;;;;;;5.85;100.00;101785.50;5006589;28;20181;-60
2021/12/15 06:16:48;;;;;;;48.33;25.77;;;;;;;5.83;100.00;101779.41;5000704;28;20283;-57
2021/12/15 06:19:13;;;;;;;41.30;24.03;;;;;;;5.84;100.00;101783.75;4999769;28;20681;-59
2021/12/15 06:21:39;;;;;;;41.63;23.93;;;;;;;5.83;100.00;101785.44;5014163;28;20331;-56
2021/12/15 06:24:04;;;;;;;41.47;24.63;;;;;;;5.84;100.00;101792.34;5012679;28;20199;-56
2021/12/15 06:26:29;;;;;;;42.17;23.80;;;;;;;5.84;100.00;101796.59;5012794;28;20297;-58
2021/12/15 06:28:55;;;;;;;41.00;23.77;;;;;;;5.83;100.00;101799.97;4986210;28;20289;-57
2021/12/15 06:31:20;;;;;;;40.90;24.20;;;;;;;5.83;100.00;101794.84;4991825;28;20200;-57
2021/12/15 06:33:46;;;;;;;42.40;23.60;;;;;;;5.83;100.00;101784.56;4997586;28;20267;-57
2021/12/15 06:36:19;;;;;;;40.03;23.43;;;;;;;5.84;100.00;101796.59;5002896;28;20196;-58
2021/12/15 06:38:46;;;;;;;38.60;23.13;;;;;;;5.83;100.00;101794.84;5009845;28;20187;-57
2021/12/15 06:41:12;;;;;;;41.00;23.23;;;;;;;5.82;100.00;101788.84;5033826;28;20214;-57
2021/12/15 06:43:42;;;;;;;42.20;25.40;;;;;;;5.83;100.00;101794.84;5012407;28;20775;-56
2021/12/15 06:59:33;;;;;;;38.03;22.87;;;;;;;5.82;100.00;101809.38;4998382;28;20543;-58
2021/12/15 07:01:58;;;;;;;37.53;23.30;;;;;;;5.82;100.00;101811.97;4998430;28;20195;-57
2021/12/15 07:04:24;;;;;;;40.70;24.63;;;;;;;5.81;100.00;101815.34;5003670;28;20190;-57
2021/12/15 07:06:51;;;;;;;43.60;24.47;;;;;;;5.82;100.00;101816.25;4994571;28;20211;-58
2021/12/15 07:09:18;;;;;;;37.17;23.67;;;;;;;5.82;100.00;101813.66;5008957;28;20180;-60
2021/12/15 07:11:43;;;;;;;38.90;24.83;;;;;;;5.83;100.00;101815.38;5000325;28;20221;-58
2021/12/15 07:14:09;;;;;;;37.87;23.57;;;;;;;5.82;100.00;101819.66;4985589;28;20268;-58
2021/12/15 07:16:40;;;;;;;38.80;24.10;;;;;;;5.82;100.00;101818.81;4985060;28;20704;-57
2021/12/15 07:19:10;;;;;;;;;;;;;;;;;;;;;
2021/12/15 07:21:36;;;;;;;43.70;26.43;;;;;;;5.81;100.00;101828.19;5013634;28;20393;-59
2021/12/15 07:24:02;;;;;;;38.87;24.47;;;;;;;5.78;100.00;101831.53;5008525;28;20190;-56
2021/12/15 07:26:27;;;;;;;42.23;25.60;;;;;;;5.78;100.00;101834.09;5009018;28;20242;-59
2021/12/15 07:28:53;;;;;;;37.50;23.83;;;;;;;5.78;100.00;101841.81;5007384;28;20276;-56
2021/12/15 07:31:19;;;;;;;46.33;26.10;;;;;;;5.80;100.00;101832.47;5015240;28;20181;-58
2021/12/15 07:33:45;;;;;;;41.87;26.17;;;;;;;5.80;100.00;101839.28;5005266;28;20186;-57
2021/12/15 07:36:11;;;;;;;49.37;28.43;;;;;;;5.80;100.00;101847.00;5004493;28;20751;-58
2021/12/15 07:38:41;;;;;;;46.23;26.87;;;;;;;5.75;100.00;101840.81;5073308;28;20185;-57
2021/12/15 07:41:10;;;;;;;42.93;26.07;;;;;;;5.73;100.00;101847.63;5004301;28;20241;-57
2021/12/15 07:43:35;;;;;;;48.80;27.80;;;;;;;5.73;100.00;101851.03;5019195;28;20183;-58
2021/12/15 07:46:04;;;;;;;47.50;27.87;;;;;;;5.76;100.00;101855.41;4988551;28;20193;-57
2021/12/15 07:48:34;;;;;;;48.53;27.27;;;;;;;5.78;100.00;101856.34;5001824;28;20189;-57
2021/12/15 07:51:02;;;;;;;48.13;27.27;;;;;;;5.78;100.00;101858.91;5003814;28;20329;-58
2021/12/15 07:53:28;;;;;;;53.47;29.80;;;;;;;5.78;100.00;101858.91;4986049;28;20599;-56
2021/12/15 07:55:54;;;;;;;53.97;28.83;;;;;;;5.76;100.00;101866.56;5019753;28;20208;-59
2021/12/15 07:58:22;;;;;;;54.03;29.43;;;;;;;5.78;100.00;101864.03;5008355;28;20205;-58
2021/12/15 08:00:49;;;;;;;53.40;28.97;;;;;;;5.77;100.00;101863.19;5009110;28;20290;-58
2021/12/15 08:03:16;;;;;;;55.53;30.60;;;;;;;5.76;100.00;101871.72;4990282;28;20236;-57
2021/12/15 08:05:42;;;;;;;54.73;30.77;;;;;;;5.75;100.00;101869.06;4998153;28;20273;-56
2021/12/15 08:08:08;;;;;;;51.17;28.63;;;;;;;5.74;100.00;101860.50;5004222;28;20200;-56
2021/12/15 08:10:35;;;;;;;53.37;30.87;;;;;;;5.75;100.00;101869.06;4997305;28;20186;-58
2021/12/15 08:13:01;;;;;;;51.50;29.67;;;;;;;5.74;100.00;101873.34;5019648;28;20185;-58
2021/12/15 08:15:27;;;;;;;53.73;30.13;;;;;;;5.75;100.00;101875.09;5022903;28;20249;-57
2021/12/15 08:17:52;;;;;;;51.77;28.53;;;;;;;5.78;100.00;101876.88;5014688;28;20202;-58
2021/12/15 08:20:26;;;;;;;58.00;31.80;;;;;;;5.80;100.00;101880.41;5015364;28;20206;-57
2021/12/15 08:22:51;;;;;;;56.27;30.40;;;;;;;5.79;100.00;101881.22;5002108;28;20187;-59
2021/12/15 08:25:18;;;;;;;73.17;35.33;;;;;;;5.81;100.00;101884.72;5015211;28;20196;-56
2021/12/15 08:27:46;;;;;;;77.10;38.57;;;;;;;5.76;100.00;101894.84;5020069;28;20214;-59
2021/12/15 08:30:19;;;;;;;73.80;34.33;;;;;;;5.77;100.00;101894.00;5025946;28;20587;-56
2021/12/15 08:32:45;;;;;;;80.03;35.93;;;;;;;5.77;100.00;101894.00;5024993;28;20941;-57
2021/12/15 08:35:11;;;;;;;72.33;36.10;;;;;;;5.79;100.00;101900.09;5019461;28;20244;-58
2021/12/15 08:37:36;;;;;;;74.47;35.43;;;;;;;5.79;100.00;101905.22;5021711;28;20209;-57
2021/12/15 08:40:03;;;;;;;68.73;34.77;;;;;;;5.81;100.00;101905.28;5013606;28;20235;-57
2021/12/15 08:42:30;;;;;;;57.77;31.40;;;;;;;5.80;100.00;101906.97;5013686;28;20192;-56
2021/12/15 08:44:56;;;;;;;56.17;30.67;;;;;;;5.83;100.00;101897.59;5021157;28;20257;-58
2021/12/15 08:47:21;;;;;;;59.23;31.70;;;;;;;5.84;100.00;101899.34;5020145;28;20210;-58
2021/12/15 08:49:46;;;;;;;56.07;29.73;;;;;;;5.84;100.00;101907.06;5017024;28;20188;-57
2021/12/15 08:52:12;;;;;;;51.73;30.10;;;;;;;5.86;100.00;101903.75;5016722;28;20254;-57
2021/12/15 08:54:37;;;;;;;60.40;32.93;;;;;;;5.86;100.00;101902.88;5010169;28;20179;-57
2021/12/15 08:57:05;;;;;;;59.80;32.00;;;;;;;5.88;100.00;101903.81;5012388;28;20233;-56
2021/12/15 08:59:30;;;;;;;63.60;33.47;;;;;;;5.90;100.00;101905.59;5010953;28;20621;-58
2021/12/15 09:01:57;;;;;;;63.73;32.77;;;;;;;5.92;100.00;101908.25;5023368;28;20260;-58
2021/12/15 09:04:23;;;;;;;60.90;32.77;;;;;;;5.92;100.00;101908.25;5019540;28;20194;-58
2021/12/15 09:06:49;;;;;;;71.20;39.20;;;;;;;5.91;100.00;101912.47;5019955;28;20205;-58
2021/12/15 09:09:17;;;;;;;85.87;48.50;;;;;;;5.96;100.00;101910.09;5018923;28;20240;-58
2021/12/15 09:11:43;;;;;;;81.70;43.00;;;;;;;5.98;100.00;101908.44;5018952;28;20190;-59
2021/12/15 09:14:11;;;;;;;63.17;34.83;;;;;;;6.03;100.00;101911.25;5019948;28;20193;-59
2021/12/15 09:16:37;;;;;;;59.93;32.70;;;;;;;6.07;100.00;101910.50;5009631;28;20211;-59
2021/12/15 09:19:04;;;;;;;66.13;33.80;;;;;;;6.09;100.00;101919.16;5006076;28;20182;-59
2021/12/15 09:21:32;;;;;;;72.63;34.77;;;;;;;6.09;100.00;101916.56;5013964;28;20336;-57
2021/12/15 09:23:59;;;;;;;69.73;33.57;;;;;;;6.09;100.00;101909.75;5011199;28;20710;-57
2021/12/15 09:26:25;;;;;;;64.70;31.57;;;;;;;6.14;100.00;101911.59;5017512;28;20247;-57
2021/12/15 09:28:51;;;;;;;71.57;35.60;;;;;;;6.17;100.00;101915.19;5013045;28;20587;-57
2021/12/15 09:31:17;;;;;;;68.90;35.60;;;;;;;6.19;100.00;101916.09;5017078;28;20225;-58
2021/12/15 09:33:49;;;;;;;72.57;34.83;;;;;;;6.23;100.00;101914.50;5022537;28;20185;-56
2021/12/15 09:36:17;;;;;;;71.67;35.30;;;;;;;6.26;100.00;101912.06;5010731;28;20474;-58
2021/12/15 09:38:45;;;;;;;68.20;33.80;;;;;;;6.36;100.00;101911.53;5015687;28;20182;-58
2021/12/15 09:41:14;;;;;;;80.10;37.67;;;;;;;6.31;100.00;101913.06;5018775;28;20615;-58
2021/12/15 09:43:41;;;;;;;75.53;36.87;;;;;;;6.37;100.00;101918.44;5025528;28;20211;-58
2021/12/15 09:46:28;;;;;;;66.70;33.97;;;;;;;6.43;100.00;101910.06;5017824;28;20194;-56
2021/12/15 10:02:47;;;;;;;62.30;34.40;;;;;;;6.63;100.00;101912.44;5009550;28;20208;-58
2021/12/15 10:18:49;;;;;;;56.03;32.17;;;;;;;6.75;100.00;101891.34;5005224;28;20251;-58
2021/12/15 10:21:28;;;;;;;56.47;32.53;;;;;;;6.74;100.00;101887.94;5010768;28;20207;-59
2021/12/15 10:23:54;;;;;;;54.10;32.23;;;;;;;6.75;100.00;101889.69;5028992;28;20180;-57
2021/12/15 10:26:20;;;;;;;51.97;30.90;;;;;;;6.81;100.00;101881.28;5018237;28;20209;-57
2021/12/15 10:28:49;;;;;;;52.10;30.20;;;;;;;6.86;100.00;101884.88;5015666;28;20647;-57
2021/12/15 10:31:16;;;;;;;48.20;28.47;;;;;;;6.90;100.00;101884.13;5017624;28;20212;-57
2021/12/15 10:33:48;;;;;;;41.90;27.83;;;;;;;6.93;100.00;101881.66;5010948;28;20184;-59
2021/12/15 10:36:16;;;;;;;39.53;26.43;;;;;;;7.00;100.00;101877.59;5015654;28;20227;-58
2021/12/15 10:39:00;;;;;;;37.03;26.00;;;;;;;7.06;100.00;101876.91;5020015;28;20196;-57
2021/12/15 10:41:33;;;;;;;44.30;26.73;;;;;;;7.09;100.00;101870.16;5016933;28;20218;-57
2021/12/15 10:44:01;;;;;;;37.67;24.77;;;;;;;7.14;100.00;101868.59;5022912;28;20204;-59
2021/12/15 10:46:28;;;;;;;37.47;26.17;;;;;;;7.22;100.00;101867.97;5017303;28;20202;-59
2021/12/15 10:49:04;;;;;;;32.87;23.40;;;;;;;7.28;100.00;101871.59;5009032;28;20234;-58
2021/12/15 10:51:45;;;;;;;30.77;21.47;;;;;;;7.27;100.00;101867.28;5018547;28;20642;-59
2021/12/15 10:54:18;;;;;;;26.97;21.03;;;;;;;7.25;100.00;101874.06;5003760;28;20199;-59
2021/12/15 10:56:52;;;;;;;28.97;21.13;;;;;;;7.33;100.00;101861.44;5010201;28;20208;-58
2021/12/15 10:59:17;;;;;;;27.70;19.93;;;;;;;7.39;100.00;101871.94;5016279;28;20193;-58
2021/12/15 11:02:05;;;;;;;27.37;20.20;;;;;;;7.40;100.00;101865.94;5006949;28;20277;-58
2021/12/15 11:04:52;;;;;;;27.10;20.27;;;;;;;7.45;100.00;101861.78;4987662;28;20226;-59
2021/12/15 11:07:39;;;;;;;28.33;19.40;;;;;;;7.52;100.00;101864.56;5006220;28;20586;-59
2021/12/15 11:10:14;;;;;;;21.00;17.70;;;;;;;7.49;100.00;101873.03;5006986;28;20193;-57
2021/12/15 11:12:50;;;;;;;22.33;18.63;;;;;;;7.58;100.00;101860.44;4986612;28;20192;-58
2021/12/15 11:15:28;;;;;;;24.83;18.30;;;;;;;7.56;100.00;101858.66;5004526;28;20188;-59
2021/12/15 11:18:00;;;;;;;23.27;17.37;;;;;;;7.60;100.00;101861.38;5001566;28;20378;-60
2021/12/15 11:20:28;;;;;;;22.80;17.67;;;;;;;7.67;100.00;101852.09;5015234;28;20210;-57
2021/12/15 11:23:00;;;;;;;24.93;18.93;;;;;;;7.79;100.00;101854.13;4992479;28;20206;-60
2021/12/15 11:25:28;;;;;;;21.87;17.93;;;;;;;7.88;100.00;101859.56;4985335;28;20282;-58
2021/12/15 11:27:58;;;;;;;22.73;17.93;;;;;;;7.92;100.00;101858.81;4987033;28;20213;-59
2021/12/15 11:30:35;;;;;;;23.23;17.33;;;;;;;7.97;100.00;101855.47;5054737;28;20182;-57
2021/12/15 11:33:06;;;;;;;17.80;13.63;;;;;;;7.87;100.00;101846.59;5008476;28;20191;-59
2021/12/15 11:35:36;;;;;;;9.40;8.50;;;;;;;7.80;100.00;101842.13;4987201;28;20184;-59
2021/12/15 11:38:13;;;;;;;9.17;8.23;;;;;;;7.80;100.00;101845.56;4986408;28;20235;-57
2021/12/15 11:41:07;;;;;;;8.90;8.03;;;;;;;7.76;100.00;101843.75;5003571;28;20217;-58
2021/12/15 11:43:50;;;;;;;8.50;7.80;;;;;;;7.68;100.00;101838.41;5015711;28;20255;-58
2021/12/15 11:46:18;;;;;;;9.13;8.33;;;;;;;7.66;100.00;101841.75;4994915;28;20262;-58
2021/12/15 11:48:47;;;;;;;9.23;8.37;;;;;;;7.75;100.00;101840.28;5005402;28;20593;-58
2021/12/15 11:51:13;;;;;;;9.13;8.27;;;;;;;7.75;100.00;101837.72;5011297;28;20226;-59
2021/12/15 11:53:38;;;;;;;10.47;8.67;;;;;;;7.74;100.00;101835.97;5005004;28;20444;-56
2021/12/15 11:56:34;;;;;;;8.90;8.10;;;;;;;7.70;100.00;101833.28;5011889;28;20182;-59
2021/12/15 11:59:40;;;;;;;9.43;8.53;;;;;;;7.69;100.00;101834.09;5004383;28;20203;-59
2021/12/15 12:02:08;;;;;;;9.83;7.90;;;;;;;7.71;100.00;101829.88;4989590;28;20215;-58
2021/12/15 12:04:52;;;;;;;8.47;7.57;;;;;;;7.73;100.00;101825.63;4989207;28;20185;-58
2021/12/15 12:07:20;;;;;;;8.70;7.90;;;;;;;7.73;100.00;101820.47;4994919;28;20213;-57
2021/12/15 12:09:49;;;;;;;7.73;7.03;;;;;;;7.83;100.00;101817.31;4992133;28;20270;-57
2021/12/15 12:12:16;;;;;;;7.63;6.93;;;;;;;7.93;100.00;101813.28;5007648;28;20189;-57
2021/12/15 12:14:49;;;;;;;7.10;6.50;;;;;;;7.92;100.00;101812.41;5027370;28;20181;-57
2021/12/15 12:17:21;;;;;;;7.57;6.80;;;;;;;7.84;100.00;101802.72;5018552;28;20682;-58
2021/12/15 12:19:55;;;;;;;7.87;6.67;;;;;;;7.80;100.00;101806.06;5005515;28;20488;-56
2021/12/15 12:22:22;;;;;;;7.43;6.73;;;;;;;7.85;100.00;101802.75;4992723;28;20195;-57
2021/12/15 12:24:52;;;;;;;6.80;6.20;;;;;;;7.83;100.00;101799.28;5014730;28;20194;-58
2021/12/15 12:27:21;;;;;;;6.40;5.80;;;;;;;7.85;100.00;101805.34;5012662;28;20579;-58
2021/12/15 12:29:46;;;;;;;6.37;5.57;;;;;;;7.81;100.00;101798.34;5008621;28;20661;-58
2021/12/15 12:32:12;;;;;;;6.87;6.17;;;;;;;7.92;100.00;101793.50;5014731;28;20202;-58
2021/12/15 12:34:40;;;;;;;6.27;5.77;;;;;;;8.00;100.00;101793.69;5015747;28;20300;-58
2021/12/15 12:37:06;;;;;;;7.00;6.03;;;;;;;8.00;100.00;101786.84;5012597;28;20203;-56